Gniezno, Poland
Current Conditions -  °F | °C
As of 10:30 AM on Sunday 23 Nov 2014 (Local Time) from EPPO Reporting Station
Clear Clear  
Wind Chill: 34°   Ceiling: Unl
Heat Index: 39°   Visibility: 4mi
Dew Point: 34°   Wind: 8mph
Humidity: 81%   Direction: 130°SE
Pressure: 30.36"   Gusts: NA
Location:  52.53°N, 17.61°E
Report Text: EPPO 230830Z 13007KT 100V160 6000 NSC 04/01 Q1028
Loading
Personal Weather Stations






























Interactive Weather Map New forecast layout! Learn more

10-Day Weather Forecast

Advertisements
Track Severe Weather on mobile